Time;durP1;ratioP1;P1;durP2;ratioP2;P2;SDS_P1;SDS_P2;PMS_P1;PMS_P2;Temp;Humidity;BMP_temperature;BMP_pressure;BME280_temperature;BME280_humidity;BME280_pressure;Samples;Min_cycle;Max_cycle;Signal;HPM_P1;HPM_P2
2021/07/04 00:00:48;;;;;;;7.40;5.18;;;;;;;23.17;37.49;100817.31;3610511;39;20482;-69
2021/07/04 00:03:16;;;;;;;6.30;5.13;;;;;;;23.15;37.15;100813.88;3621564;39;20425;-70
2021/07/04 00:05:46;;;;;;;6.80;5.07;;;;;;;23.15;37.50;100804.66;3618459;39;20112;-69
2021/07/04 00:08:17;;;;;;;6.57;5.20;;;;;;;23.14;37.51;100809.38;3621265;39;20050;-69
2021/07/04 00:10:48;;;;;;;6.68;5.32;;;;;;;23.14;37.63;100806.56;3618983;39;20051;-71
2021/07/04 00:13:17;;;;;;;7.38;5.47;;;;;;;23.10;37.52;100805.31;3625083;39;20062;-71
2021/07/04 00:15:46;;;;;;;8.68;6.38;;;;;;;23.11;37.84;100806.16;3610005;39;20048;-69
2021/07/04 00:18:18;;;;;;;6.68;5.30;;;;;;;23.10;37.61;100802.53;3611827;39;20059;-69
2021/07/04 00:20:48;;;;;;;8.80;6.40;;;;;;;23.06;38.19;100789.19;3605489;39;20051;-70
2021/07/04 00:23:16;;;;;;;7.70;6.47;;;;;;;23.02;38.23;100779.56;3616975;39;20333;-69
2021/07/04 00:25:47;;;;;;;9.23;7.32;;;;;;;23.02;38.86;100786.00;3619184;39;20051;-69
2021/07/04 00:28:16;;;;;;;9.75;6.57;;;;;;;22.96;38.35;100780.44;3621400;39;20108;-69
2021/07/04 00:30:44;;;;;;;9.15;6.82;;;;;;;22.93;38.50;100776.13;3611308;39;20035;-69
2021/07/04 00:33:12;;;;;;;10.60;7.75;;;;;;;22.90;38.49;100776.56;3615423;39;20085;-69
2021/07/04 00:35:41;;;;;;;10.05;7.35;;;;;;;22.87;38.98;100771.44;3617984;39;20055;-69
2021/07/04 00:38:10;;;;;;;9.30;6.72;;;;;;;22.83;38.99;100768.19;3619793;39;20122;-69
2021/07/04 00:40:40;;;;;;;8.82;7.45;;;;;;;22.80;38.80;100764.97;3610510;39;20137;-69
2021/07/04 00:43:11;;;;;;;10.35;7.90;;;;;;;22.79;39.19;100768.81;3611611;39;20087;-70
2021/07/04 00:45:40;;;;;;;9.80;7.43;;;;;;;22.74;39.32;100757.44;3613600;39;20051;-70
2021/07/04 00:48:09;;;;;;;9.35;7.63;;;;;;;22.72;38.96;100767.97;3603557;39;20302;-70
2021/07/04 00:50:38;;;;;;;9.77;7.43;;;;;;;22.70;39.33;100753.38;3610941;39;20028;-70
2021/07/04 00:53:09;;;;;;;9.98;7.32;;;;;;;22.66;39.32;100764.09;3613116;39;20062;-70
2021/07/04 00:55:40;;;;;;;9.95;7.35;;;;;;;22.66;38.82;100754.88;3625412;39;20048;-71
2021/07/04 00:58:16;;;;;;;9.07;7.20;;;;;;;22.65;39.17;100756.78;3618778;39;20032;-70
2021/07/04 01:00:45;;;;;;;10.15;7.50;;;;;;;22.62;39.47;100757.25;3610068;39;20061;-70
2021/07/04 01:03:14;;;;;;;9.13;7.60;;;;;;;22.61;39.24;100755.53;3609935;39;20140;-70
2021/07/04 01:05:47;;;;;;;10.02;7.80;;;;;;;22.59;38.98;100757.66;3605223;39;20318;-70
2021/07/04 01:08:17;;;;;;;10.68;8.30;;;;;;;22.57;39.57;100754.22;3616749;39;20390;-70
2021/07/04 01:10:47;;;;;;;9.70;8.23;;;;;;;22.57;39.17;100762.59;3610480;39;20056;-71
2021/07/04 01:13:18;;;;;;;10.60;8.73;;;;;;;22.56;39.72;100750.56;3607766;39;20077;-70
2021/07/04 01:16:00;;;;;;;10.88;8.60;;;;;;;22.50;39.87;100745.84;3610410;39;20043;-70
2021/07/04 01:18:29;;;;;;;11.13;8.68;;;;;;;22.49;39.67;100752.50;3608759;39;20047;-70
2021/07/04 01:21:03;;;;;;;8.73;7.38;;;;;;;22.47;40.03;100742.66;3594357;39;20482;-70
2021/07/04 01:23:37;;;;;;;10.05;7.88;;;;;;;22.46;39.89;100743.72;3609485;39;20398;-70
2021/07/04 01:26:07;;;;;;;11.05;8.35;;;;;;;22.41;40.23;100749.06;3615396;39;20136;-70
2021/07/04 01:28:36;;;;;;;9.65;7.72;;;;;;;22.39;39.81;100740.09;3615005;39;20066;-70
2021/07/04 01:31:07;;;;;;;9.57;7.97;;;;;;;22.36;40.14;100734.91;3609696;39;20056;-70
2021/07/04 01:33:38;;;;;;;9.63;8.00;;;;;;;22.32;40.36;100730.81;3611730;39;20159;-70
2021/07/04 01:36:17;;;;;;;9.88;8.13;;;;;;;22.31;40.14;100726.34;3611065;39;20043;-70
2021/07/04 01:38:51;;;;;;;11.07;8.45;;;;;;;22.29;40.48;100725.69;3611094;39;20054;-70
2021/07/04 01:41:20;;;;;;;9.35;7.72;;;;;;;22.28;40.16;100721.19;3619350;39;20038;-70
2021/07/04 01:43:50;;;;;;;9.30;7.32;;;;;;;22.27;40.00;100727.84;3612828;39;20410;-71
2021/07/04 01:46:22;;;;;;;8.82;7.22;;;;;;;22.27;39.80;100728.69;3618910;39;20253;-70
2021/07/04 01:48:55;;;;;;;10.48;7.53;;;;;;;22.24;39.80;100717.09;3606385;39;20039;-70
2021/07/04 01:51:23;;;;;;;10.27;7.95;;;;;;;22.24;39.87;100726.31;3606682;39;20499;-70
2021/07/04 01:53:54;;;;;;;11.60;8.15;;;;;;;22.26;39.99;100723.31;3612015;39;20364;-71
2021/07/04 01:56:30;;;;;;;10.63;7.80;;;;;;;22.24;40.19;100725.47;3611559;39;20028;-70
2021/07/04 01:59:00;;;;;;;10.80;7.88;;;;;;;22.24;39.97;100729.09;3611134;39;20047;-70
2021/07/04 02:01:39;;;;;;;10.90;7.80;;;;;;;22.24;39.89;100725.47;3609415;39;20055;-70
2021/07/04 02:04:07;;;;;;;10.05;7.68;;;;;;;22.23;39.79;100720.97;3617909;39;20347;-70
2021/07/04 02:06:39;;;;;;;11.30;8.18;;;;;;;22.21;39.84;100723.97;3614509;39;20309;-70
2021/07/04 02:09:10;;;;;;;11.55;8.30;;;;;;;22.25;39.86;100730.81;3606380;39;20123;-70
2021/07/04 02:11:40;;;;;;;10.90;8.20;;;;;;;22.24;39.89;100736.59;3619448;39;20043;-70
2021/07/04 02:14:11;;;;;;;10.43;7.53;;;;;;;22.25;40.10;100732.75;3611275;39;20367;-70
2021/07/04 02:16:47;;;;;;;10.55;8.13;;;;;;;22.24;40.47;100734.69;3607206;39;20129;-70
2021/07/04 02:19:41;;;;;;;9.43;7.15;;;;;;;22.23;40.34;100729.34;3603664;39;20071;-70
2021/07/04 02:22:23;;;;;;;10.35;7.63;;;;;;;22.22;39.83;100730.41;3605378;39;20333;-70
2021/07/04 02:25:05;;;;;;;10.52;8.18;;;;;;;22.24;39.62;100723.53;3605031;39;20023;-70
2021/07/04 02:27:36;;;;;;;10.77;8.55;;;;;;;22.22;39.87;100725.69;3610032;39;20406;-70
2021/07/04 02:30:14;;;;;;;10.55;7.90;;;;;;;22.23;40.28;100724.63;3606780;39;20051;-70
2021/07/04 02:32:47;;;;;;;9.15;7.55;;;;;;;22.21;40.03;100731.47;3606552;39;20329;-70
2021/07/04 02:35:17;;;;;;;9.65;7.60;;;;;;;22.22;40.10;100730.41;3598331;39;20035;-70
2021/07/04 02:37:45;;;;;;;9.77;7.90;;;;;;;22.19;40.21;100729.72;3609147;39;20083;-70
2021/07/04 02:40:22;;;;;;;9.65;7.53;;;;;;;22.21;40.20;100723.13;3614942;39;20416;-70
2021/07/04 02:42:56;;;;;;;10.27;7.63;;;;;;;22.20;40.08;100722.22;3601932;39;20402;-70
2021/07/04 02:45:25;;;;;;;9.02;7.28;;;;;;;22.19;40.53;100721.38;3613850;39;20047;-70
2021/07/04 02:48:08;;;;;;;9.68;7.18;;;;;;;22.18;39.89;100714.06;3600129;39;20050;-71
2021/07/04 02:50:42;;;;;;;9.65;7.07;;;;;;;22.19;40.50;100721.38;3602428;39;20052;-70
2021/07/04 02:53:10;;;;;;;10.55;7.50;;;;;;;22.17;40.48;100720.72;3611271;39;20306;-70
2021/07/04 02:55:44;;;;;;;10.53;7.37;;;;;;;22.17;40.03;100719.84;3618679;39;20128;-70
2021/07/04 02:58:14;;;;;;;10.27;7.13;;;;;;;22.14;40.05;100721.16;3609894;39;20088;-70
2021/07/04 03:00:45;;;;;;;9.63;7.30;;;;;;;22.16;40.18;100719.00;3607323;39;20039;-71
2021/07/04 03:03:16;;;;;;;10.65;7.53;;;;;;;22.13;40.26;100707.44;3610869;39;20058;-70
2021/07/04 03:05:46;;;;;;;10.27;7.10;;;;;;;22.14;40.57;100710.00;3603035;39;20079;-70
2021/07/04 03:08:15;;;;;;;9.73;7.82;;;;;;;22.14;39.91;100711.94;3610053;39;20047;-71
2021/07/04 03:10:45;;;;;;;9.52;7.22;;;;;;;22.14;40.11;100710.00;3609854;39;20389;-70
2021/07/04 03:13:17;;;;;;;9.77;7.20;;;;;;;22.12;40.42;100712.16;3605877;39;20063;-70
2021/07/04 03:15:46;;;;;;;9.10;7.22;;;;;;;22.12;40.17;100714.06;3617829;39;20031;-70
2021/07/04 03:18:15;;;;;;;10.10;7.90;;;;;;;22.11;39.88;100709.56;3611606;39;20132;-70
2021/07/04 03:20:44;;;;;;;9.15;6.95;;;;;;;22.10;39.88;100705.91;3605070;39;20055;-69
2021/07/04 03:23:14;;;;;;;9.65;7.45;;;;;;;22.11;40.12;100710.41;3614906;39;20117;-70
2021/07/04 03:25:47;;;;;;;9.25;7.47;;;;;;;22.12;40.47;100717.72;3618650;39;20394;-69
2021/07/04 03:28:17;;;;;;;9.82;7.32;;;;;;;22.08;40.24;100715.53;3610572;39;20044;-70
2021/07/04 03:30:46;;;;;;;9.30;7.30;;;;;;;22.07;40.65;100714.69;3610290;39;20398;-70
2021/07/04 03:33:14;;;;;;;9.95;7.28;;;;;;;22.08;40.69;100710.84;3612256;39;20612;-69
2021/07/04 03:35:44;;;;;;;9.50;6.97;;;;;;;22.08;40.12;100713.63;3612018;39;20046;-70
2021/07/04 03:38:12;;;;;;;9.43;6.95;;;;;;;22.08;40.60;100710.84;3615052;39;20035;-71
2021/07/04 03:40:46;;;;;;;10.93;7.65;;;;;;;22.07;40.81;100711.91;3618365;39;20055;-70
2021/07/04 03:43:25;;;;;;;9.68;7.13;;;;;;;22.05;40.70;100710.41;3609290;39;20032;-70
2021/07/04 03:45:54;;;;;;;9.30;7.40;;;;;;;22.05;40.38;100708.50;3616057;39;20058;-70
2021/07/04 03:48:25;;;;;;;8.55;7.32;;;;;;;22.03;40.89;100710.63;3606088;39;20058;-70
2021/07/04 03:51:02;;;;;;;8.48;7.28;;;;;;;22.01;40.44;100712.75;3609839;39;20055;-70
2021/07/04 03:53:34;;;;;;;9.60;6.97;;;;;;;21.98;40.67;100706.75;3609908;39;20050;-70
2021/07/04 03:56:04;;;;;;;8.60;6.75;;;;;;;22.00;40.59;100711.03;3602942;39;20043;-70
2021/07/04 03:58:33;;;;;;;10.13;6.95;;;;;;;21.96;40.53;100708.91;3601585;39;20131;-70
2021/07/04 04:01:03;;;;;;;8.80;6.65;;;;;;;21.95;40.51;100710.81;3605439;39;20465;-70
2021/07/04 04:03:38;;;;;;;8.77;7.05;;;;;;;21.95;40.54;100718.31;3610738;39;20088;-70
2021/07/04 04:06:09;;;;;;;8.75;6.75;;;;;;;21.95;40.92;100721.09;3610992;39;20429;-70
2021/07/04 04:08:46;;;;;;;9.48;7.30;;;;;;;21.95;41.13;100721.09;3630032;39;20030;-69
2021/07/04 04:11:23;;;;;;;8.75;7.00;;;;;;;21.95;40.78;100715.53;3619629;39;20043;-70
2021/07/04 04:14:02;;;;;;;8.50;6.80;;;;;;;21.92;41.14;100716.81;3609973;39;20062;-70
2021/07/04 04:16:31;;;;;;;8.68;7.13;;;;;;;21.93;40.90;100715.72;3618180;39;20058;-70
2021/07/04 04:19:00;;;;;;;9.85;7.05;;;;;;;21.93;41.47;100717.66;3608971;39;20127;-70
2021/07/04 04:21:28;;;;;;;9.40;7.28;;;;;;;21.93;41.12;100715.72;3613719;39;20043;-70
2021/07/04 04:24:02;;;;;;;9.32;7.25;;;;;;;21.92;41.35;100719.59;3606385;39;20307;-70
2021/07/04 04:26:33;;;;;;;9.77;7.00;;;;;;;21.95;41.07;100721.09;3606195;39;20108;-70
2021/07/04 04:29:01;;;;;;;8.55;6.47;;;;;;;21.92;41.32;100721.50;3618952;39;20391;-70
2021/07/04 04:31:30;;;;;;;9.25;6.82;;;;;;;21.90;41.65;100730.09;3614769;39;20123;-70
2021/07/04 04:33:59;;;;;;;9.02;6.90;;;;;;;21.90;41.34;100723.66;3620628;39;20456;-70
2021/07/04 04:36:28;;;;;;;9.90;6.80;;;;;;;21.89;41.17;100722.81;3615913;39;20077;-70
2021/07/04 04:38:57;;;;;;;8.48;6.80;;;;;;;21.89;41.45;100722.81;3617611;39;20059;-70
2021/07/04 04:41:25;;;;;;;8.60;7.10;;;;;;;21.88;41.17;100732.22;3614507;39;20567;-70
2021/07/04 04:43:54;;;;;;;8.98;6.53;;;;;;;21.90;41.69;100724.53;3616928;39;20060;-70
2021/07/04 04:46:22;;;;;;;8.98;6.72;;;;;;;21.88;41.72;100731.38;3617686;39;20079;-70
2021/07/04 04:48:50;;;;;;;8.35;6.78;;;;;;;21.88;41.43;100729.44;3612503;39;20059;-70
2021/07/04 04:51:18;;;;;;;9.50;6.82;;;;;;;21.87;41.73;100719.38;3613111;39;20406;-70
2021/07/04 04:53:47;;;;;;;7.72;6.32;;;;;;;21.87;41.58;100724.94;3608666;39;20047;-70
2021/07/04 04:56:15;;;;;;;9.05;6.68;;;;;;;21.88;41.26;100731.38;3612476;39;20051;-70
2021/07/04 04:58:43;;;;;;;7.70;6.32;;;;;;;21.88;41.28;100734.16;3610744;39;20051;-70
2021/07/04 05:01:12;;;;;;;8.27;6.22;;;;;;;21.88;41.50;100732.22;3620176;39;20082;-70
2021/07/04 05:03:41;;;;;;;8.32;6.72;;;;;;;21.87;41.83;100721.28;3622985;39;20035;-70
2021/07/04 05:06:10;;;;;;;8.55;6.03;;;;;;;21.86;41.56;100727.94;3614630;39;20108;-71
2021/07/04 05:08:39;;;;;;;7.30;5.80;;;;;;;21.86;41.76;100714.88;3608409;39;20087;-70
2021/07/04 05:11:09;;;;;;;7.78;6.28;;;;;;;21.87;42.11;100707.38;3620376;39;20050;-70
2021/07/04 05:13:39;;;;;;;7.47;6.00;;;;;;;21.86;41.42;100712.06;3621663;39;20059;-70
2021/07/04 05:16:34;;;;;;;8.27;6.30;;;;;;;21.83;41.35;100720.84;3672246;22;20514;-79
2021/07/04 05:19:05;;;;;;;8.45;6.10;;;;;;;21.83;41.70;100723.63;3582910;39;20033;-83
2021/07/04 05:21:34;;;;;;;7.82;5.95;;;;;;;21.82;41.65;100707.97;3599478;40;20452;-82
2021/07/04 05:24:03;;;;;;;6.82;5.45;;;;;;;21.84;41.68;100705.84;3594653;40;20027;-81
2021/07/04 05:26:33;;;;;;;9.90;6.60;;;;;;;21.85;41.81;100712.28;3568895;40;20036;-82
2021/07/04 05:29:02;;;;;;;7.47;5.88;;;;;;;21.83;41.55;100702.22;3581652;40;20033;-79
2021/07/04 05:31:31;;;;;;;7.72;5.97;;;;;;;21.83;41.48;100702.22;3570319;40;20610;-80
2021/07/04 05:34:00;;;;;;;7.35;5.95;;;;;;;21.83;41.96;100705.00;3551889;40;20120;-80
2021/07/04 05:36:29;;;;;;;8.07;6.50;;;;;;;21.82;41.65;100703.28;3544913;40;20030;-82
2021/07/04 05:38:58;;;;;;;8.20;6.30;;;;;;;21.82;41.82;100700.50;3553192;40;20375;-82
2021/07/04 05:41:27;;;;;;;8.32;5.93;;;;;;;21.80;42.02;100694.28;3557917;40;20030;-82
2021/07/04 05:43:55;;;;;;;7.57;6.30;;;;;;;21.79;41.97;100694.50;3571004;40;20044;-80
2021/07/04 05:46:23;;;;;;;7.85;5.93;;;;;;;21.78;42.39;100695.56;3562131;40;20034;-80
2021/07/04 05:48:52;;;;;;;8.45;5.82;;;;;;;21.75;42.31;100694.03;3571152;40;20044;-81
2021/07/04 05:51:25;;;;;;;7.18;5.75;;;;;;;21.79;42.68;100700.94;3600742;40;20064;-81
2021/07/04 05:53:53;;;;;;;7.18;5.65;;;;;;;21.76;42.54;100701.34;3554087;40;20035;-80
2021/07/04 05:56:21;;;;;;;7.28;5.57;;;;;;;21.78;43.27;100696.44;3542436;40;20038;-81
2021/07/04 05:58:49;;;;;;;6.97;5.43;;;;;;;21.81;42.79;100695.16;3547044;40;20418;-80
2021/07/04 06:01:17;;;;;;;8.00;5.78;;;;;;;21.87;43.15;100693.44;3560423;39;20042;-81
2021/07/04 06:03:45;;;;;;;8.60;5.38;;;;;;;21.92;43.19;100696.44;3541524;40;20041;-80
2021/07/04 06:06:13;;;;;;;6.72;4.95;;;;;;;21.99;43.09;100702.88;3560093;40;20034;-80
2021/07/04 06:08:43;;;;;;;7.45;5.78;;;;;;;22.07;43.27;100694.31;3560422;40;20038;-80
2021/07/04 06:11:11;;;;;;;7.72;5.63;;;;;;;22.11;43.19;100693.72;3558972;40;20042;-82
2021/07/04 06:13:39;;;;;;;8.93;5.72;;;;;;;22.18;43.45;100694.56;3567670;39;20034;-80
2021/07/04 06:16:08;;;;;;;9.45;5.97;;;;;;;22.28;42.91;100687.75;3560396;40;20044;-80
2021/07/04 06:18:36;;;;;;;7.55;5.75;;;;;;;22.36;43.21;100685.63;3559566;40;20038;-80
2021/07/04 06:21:06;;;;;;;8.40;5.78;;;;;;;22.45;42.96;100694.63;3567644;39;20046;-81
2021/07/04 06:23:34;;;;;;;7.18;5.47;;;;;;;22.54;43.43;100687.75;3565467;39;20045;-79
2021/07/04 06:26:03;;;;;;;6.85;5.35;;;;;;;22.67;43.80;100687.72;3563909;40;20034;-81
2021/07/04 06:28:32;;;;;;;7.00;5.30;;;;;;;22.74;42.76;100683.00;3568719;39;20034;-80
2021/07/04 06:31:00;;;;;;;6.50;4.40;;;;;;;22.84;42.94;100690.97;3561640;40;20041;-80
2021/07/04 06:33:29;;;;;;;7.20;5.35;;;;;;;22.93;42.96;100684.94;3568172;40;20044;-79
2021/07/04 06:35:57;;;;;;;6.00;4.90;;;;;;;23.02;42.27;100680.00;3552257;40;20099;-81
2021/07/04 06:38:25;;;;;;;6.60;4.32;;;;;;;23.10;42.43;100673.31;3561410;40;20050;-80
2021/07/04 06:40:53;;;;;;;6.75;4.40;;;;;;;23.16;42.25;100664.91;3552984;40;20030;-80
2021/07/04 06:43:22;;;;;;;5.38;4.13;;;;;;;23.25;42.31;100668.31;3550834;40;20141;-79
2021/07/04 06:45:53;;;;;;;7.85;5.28;;;;;;;23.28;41.89;100662.31;3600948;40;20040;-82
2021/07/04 06:48:22;;;;;;;6.13;4.35;;;;;;;23.36;41.79;100669.56;3569895;40;20030;-79
2021/07/04 06:50:50;;;;;;;5.93;4.57;;;;;;;23.41;41.94;100667.81;3563714;40;20058;-80
2021/07/04 06:53:18;;;;;;;8.10;5.28;;;;;;;23.47;41.34;100672.53;3561662;40;20049;-81
2021/07/04 06:55:47;;;;;;;6.95;4.68;;;;;;;23.53;41.46;100677.25;3556388;40;20030;-80
2021/07/04 06:58:15;;;;;;;5.53;4.18;;;;;;;23.58;41.44;100671.00;3559594;40;20038;-82
2021/07/04 07:00:45;;;;;;;5.80;4.35;;;;;;;23.67;41.45;100675.25;3564736;39;20034;-80
2021/07/04 07:03:13;;;;;;;6.03;4.47;;;;;;;23.73;41.85;100671.56;3553865;40;20042;-82
2021/07/04 07:05:44;;;;;;;5.72;4.45;;;;;;;23.80;41.41;100672.38;3565277;40;20389;-82
2021/07/04 07:08:15;;;;;;;6.90;5.38;;;;;;;23.88;41.49;100674.06;3561597;39;20042;-80
2021/07/04 07:10:43;;;;;;;6.25;4.43;;;;;;;23.94;40.88;100674.00;3561847;40;20053;-82
2021/07/04 07:13:11;;;;;;;5.80;4.15;;;;;;;23.99;40.68;100670.53;3567402;40;20058;-81
2021/07/04 07:15:45;;;;;;;5.57;4.72;;;;;;;24.03;40.33;100671.81;3589357;40;20035;-83
2021/07/04 07:18:15;;;;;;;7.82;5.00;;;;;;;24.08;40.24;100672.00;3560669;39;20481;-83
2021/07/04 07:20:43;;;;;;;5.80;4.28;;;;;;;24.09;40.39;100670.06;3566096;39;20049;-81
2021/07/04 07:23:14;;;;;;;5.55;4.07;;;;;;;24.10;40.51;100672.66;3554169;40;20038;-80
2021/07/04 07:25:44;;;;;;;6.88;4.10;;;;;;;24.14;40.21;100657.13;3566924;39;20030;-82
2021/07/04 07:28:13;;;;;;;7.72;4.80;;;;;;;24.18;40.58;100663.13;3563525;40;20049;-81
2021/07/04 07:31:10;;;;;;;6.32;4.38;;;;;;;24.23;39.97;100663.28;3561756;40;20041;-82
2021/07/04 07:34:07;;;;;;;6.38;3.60;;;;;;;24.25;39.70;100659.19;3537282;40;20635;-81
2021/07/04 07:36:37;;;;;;;4.88;3.80;;;;;;;24.25;39.92;100659.19;3587087;39;20089;-81
2021/07/04 07:39:07;;;;;;;5.20;3.92;;;;;;;24.28;40.13;100664.34;3518406;40;20136;-81
2021/07/04 07:41:42;;;;;;;5.82;4.10;;;;;;;24.28;39.93;100663.50;3515271;40;20042;-82
2021/07/04 07:44:12;;;;;;;6.00;4.35;;;;;;;24.28;39.66;100658.75;3539035;40;20031;-80
2021/07/04 07:46:50;;;;;;;7.00;5.03;;;;;;;24.29;39.19;100657.63;3538186;40;20123;-80
2021/07/04 07:49:20;;;;;;;6.82;4.57;;;;;;;24.27;39.35;100659.84;3538127;39;20023;-82
2021/07/04 07:51:50;;;;;;;5.35;4.05;;;;;;;24.23;39.60;100650.19;3531145;40;20023;-82
2021/07/04 07:54:27;;;;;;;6.03;4.53;;;;;;;24.24;39.71;100637.91;3540334;40;20059;-86
2021/07/04 07:56:56;;;;;;;7.57;5.20;;;;;;;24.23;39.22;100646.53;3541188;40;20035;-84
2021/07/04 07:59:24;;;;;;;7.70;4.78;;;;;;;24.23;39.74;100636.19;3520194;40;20575;-82
2021/07/04 08:01:53;;;;;;;6.93;4.38;;;;;;;24.22;39.67;100636.41;3530818;40;20570;-82
2021/07/04 08:04:25;;;;;;;6.13;4.65;;;;;;;24.23;39.40;100633.41;3522983;40;20068;-81
2021/07/04 08:06:54;;;;;;;5.68;4.30;;;;;;;24.21;39.15;100629.97;3529161;40;20038;-81
2021/07/04 08:09:25;;;;;;;6.88;3.85;;;;;;;24.22;39.41;100636.41;3551867;40;20023;-86
2021/07/04 08:11:54;;;;;;;6.53;5.00;;;;;;;24.23;39.44;100629.75;3554477;40;20027;-84
2021/07/04 08:14:23;;;;;;;6.30;5.10;;;;;;;24.25;39.28;100630.38;3559108;39;20051;-83
2021/07/04 08:17:01;;;;;;;6.60;4.82;;;;;;;24.25;39.48;100641.56;3551413;39;20038;-83
2021/07/04 08:19:31;;;;;;;5.93;4.18;;;;;;;24.29;39.17;100631.66;3590410;40;20492;-80
2021/07/04 08:22:00;;;;;;;6.57;3.92;;;;;;;24.29;39.46;100626.88;3575735;40;20052;-81
2021/07/04 08:24:29;;;;;;;6.70;4.50;;;;;;;24.33;39.52;100630.09;3556155;40;20088;-79
2021/07/04 08:26:58;;;;;;;6.72;4.60;;;;;;;24.35;39.97;100626.00;3552948;40;20309;-80
2021/07/04 08:29:26;;;;;;;5.53;4.10;;;;;;;24.40;39.66;100622.50;3563559;40;20137;-80
2021/07/04 08:31:55;;;;;;;6.97;4.75;;;;;;;24.43;39.75;100605.28;3562332;40;20026;-81
2021/07/04 08:34:23;;;;;;;6.50;4.50;;;;;;;24.49;39.35;100609.94;3568694;40;20029;-82
2021/07/04 08:36:53;;;;;;;6.30;4.75;;;;;;;24.56;39.21;100607.06;3568986;40;20118;-80
2021/07/04 08:39:23;;;;;;;5.88;4.28;;;;;;;24.58;39.24;100604.91;3562052;40;20042;-79
2021/07/04 08:41:52;;;;;;;6.63;5.32;;;;;;;24.62;38.76;100598.59;3568499;39;20069;-82
2021/07/04 08:44:29;;;;;;;7.93;5.05;;;;;;;24.64;38.77;100590.00;3566793;39;20056;-82
2021/07/04 08:47:02;;;;;;;7.20;5.25;;;;;;;24.67;38.73;100586.78;3567176;39;20030;-81
2021/07/04 08:49:32;;;;;;;6.78;5.88;;;;;;;24.63;38.46;100588.28;3558919;40;20037;-81
2021/07/04 08:52:10;;;;;;;7.60;6.13;;;;;;;24.65;38.37;100594.50;3554243;40;20060;-82
2021/07/04 08:54:39;;;;;;;6.88;5.80;;;;;;;24.63;38.69;100602.25;3562590;40;20037;-80
2021/07/04 08:57:16;;;;;;;7.00;6.07;;;;;;;24.63;38.57;100607.84;3565581;39;20042;-81
2021/07/04 08:59:49;;;;;;;6.60;5.38;;;;;;;24.67;38.48;100603.56;3578261;39;20052;-80
2021/07/04 09:02:32;;;;;;;6.38;5.65;;;;;;;24.69;38.63;100593.00;3566236;40;20103;-82
2021/07/04 09:05:04;;;;;;;6.18;5.00;;;;;;;24.70;38.89;100586.31;3566455;40;20038;-80
2021/07/04 09:07:34;;;;;;;5.95;5.35;;;;;;;24.77;38.92;100579.56;3567951;40;20082;-81
2021/07/04 09:10:06;;;;;;;7.47;6.25;;;;;;;24.84;39.01;100570.22;3569588;39;20266;-79
2021/07/04 09:12:42;;;;;;;7.55;6.00;;;;;;;24.92;38.58;100578.31;3570585;39;20118;-80
2021/07/04 09:15:40;;;;;;;6.57;5.72;;;;;;;24.93;38.35;100575.28;3568089;39;20465;-81
2021/07/04 09:19:10;;;;;;;5.97;5.38;;;;;;;25.04;38.20;100573.63;3653375;22;20060;-71
2021/07/04 09:21:38;;;;;;;5.75;4.70;;;;;;;25.09;38.75;100569.06;3612516;39;20380;-67
2021/07/04 09:24:22;;;;;;;5.38;4.88;;;;;;;25.20;38.42;100565.44;3615705;39;20050;-68
2021/07/04 09:26:51;;;;;;;5.47;4.63;;;;;;;25.28;38.50;100563.47;3614952;39;20390;-70
2021/07/04 09:29:40;;;;;;;5.35;4.75;;;;;;;25.38;37.63;100569.31;3618731;39;20046;-69
2021/07/04 09:32:15;;;;;;;4.75;4.15;;;;;;;25.50;37.39;100564.63;3608921;39;20050;-70
2021/07/04 09:34:56;;;;;;;6.35;4.88;;;;;;;25.59;37.69;100552.00;3618655;39;20073;-69
2021/07/04 09:37:32;;;;;;;5.45;4.53;;;;;;;25.69;37.50;100552.25;3619118;39;20051;-70
2021/07/04 09:40:22;;;;;;;5.35;4.28;;;;;;;25.75;37.14;100544.84;3619038;39;20087;-70
2021/07/04 09:42:55;;;;;;;5.43;3.95;;;;;;;25.85;36.88;100543.22;3618386;39;20046;-70
2021/07/04 09:45:25;;;;;;;5.57;4.43;;;;;;;25.92;36.89;100543.97;3618229;39;20055;-69
2021/07/04 09:47:54;;;;;;;6.30;4.30;;;;;;;25.98;36.72;100541.28;3618731;39;20059;-70
2021/07/04 09:50:23;;;;;;;5.97;4.40;;;;;;;26.03;36.60;100535.78;3611641;39;20047;-69
2021/07/04 09:52:59;;;;;;;6.07;4.00;;;;;;;26.13;36.50;100533.22;3617238;39;20054;-70
2021/07/04 09:55:31;;;;;;;4.75;3.88;;;;;;;26.17;36.59;100524.13;3618863;39;20063;-69
2021/07/04 09:58:02;;;;;;;5.38;3.80;;;;;;;26.22;36.13;100526.16;3607590;39;20054;-70
2021/07/04 10:00:33;;;;;;;6.03;4.33;;;;;;;26.24;36.18;100519.22;3608755;39;20044;-70
2021/07/04 10:03:12;;;;;;;5.78;4.57;;;;;;;26.30;35.13;100523.84;3618404;39;20063;-69
2021/07/04 10:05:42;;;;;;;6.55;4.57;;;;;;;26.33;35.80;100516.06;3603812;39;20612;-69
2021/07/04 10:08:25;;;;;;;5.63;4.13;;;;;;;26.35;35.16;100509.09;3612585;39;20505;-69
2021/07/04 10:10:57;;;;;;;4.32;3.70;;;;;;;26.36;35.46;100505.19;3614563;39;20073;-69
2021/07/04 10:13:26;;;;;;;4.65;3.75;;;;;;;26.35;35.45;100502.66;3617091;39;20051;-69
2021/07/04 10:15:55;;;;;;;5.10;4.10;;;;;;;26.32;34.75;100495.56;3611882;39;20391;-69
2021/07/04 10:18:24;;;;;;;4.88;3.53;;;;;;;26.32;35.08;100501.19;3612697;39;20065;-69
2021/07/04 10:20:53;;;;;;;5.93;3.70;;;;;;;26.31;34.83;100491.06;3612938;39;20044;-69
2021/07/04 10:23:24;;;;;;;4.97;3.58;;;;;;;26.30;34.92;100497.75;3618301;39;20062;-69
2021/07/04 10:25:56;;;;;;;4.75;3.65;;;;;;;26.26;34.99;100491.81;3615055;39;20829;-73
2021/07/04 10:28:28;;;;;;;5.20;3.15;;;;;;;26.25;35.01;100484.50;3613051;39;20447;-69
2021/07/04 10:30:57;;;;;;;4.55;3.67;;;;;;;26.25;35.12;100483.63;3613288;39;20074;-70
2021/07/04 10:33:32;;;;;;;4.30;3.55;;;;;;;26.28;35.20;100486.78;3613754;39;20066;-70
2021/07/04 10:36:07;;;;;;;4.65;3.75;;;;;;;26.29;34.79;100480.06;3613420;39;20141;-68
2021/07/04 10:38:47;;;;;;;4.85;3.85;;;;;;;26.30;34.53;100480.94;3617701;39;20067;-68
2021/07/04 10:41:21;;;;;;;;;;;;;;;25.98;35.99;100485.22;3614440;39;20058;-69
2021/07/04 10:43:55;;;;;;;5.53;3.45;;;;;;;26.27;35.06;100475.81;3610070;39;19931;-69
2021/07/04 10:47:02;;;;;;;4.50;3.42;;;;;;;26.29;34.92;100471.66;3615847;39;20114;-69
2021/07/04 10:49:43;;;;;;;4.18;3.42;;;;;;;26.31;34.55;100471.44;3613943;39;20044;-69
2021/07/04 10:52:16;;;;;;;5.93;3.80;;;;;;;26.33;34.81;100469.25;3614739;39;20058;-69
2021/07/04 10:54:53;;;;;;;4.70;3.75;;;;;;;26.31;34.83;100465.81;3607513;39;20086;-69
2021/07/04 10:57:26;;;;;;;4.88;3.80;;;;;;;26.33;34.52;100462.78;3616660;39;20087;-70
2021/07/04 11:00:13;;;;;;;5.22;4.03;;;;;;;26.30;34.26;100464.97;3615187;39;20039;-69
2021/07/04 11:02:44;;;;;;;4.68;3.40;;;;;;;26.29;34.52;100460.44;3608416;39;20152;-70
2021/07/04 11:05:13;;;;;;;5.07;3.80;;;;;;;26.26;34.34;100454.50;3618502;39;20662;-69
2021/07/04 11:08:06;;;;;;;5.22;3.70;;;;;;;26.22;34.32;100456.06;3616335;39;20055;-69
2021/07/04 11:10:36;;;;;;;5.50;3.95;;;;;;;26.20;34.30;100456.31;3618176;39;20047;-69
2021/07/04 11:13:42;;;;;;;4.97;3.80;;;;;;;26.17;34.51;100441.94;3614238;39;20047;-70
2021/07/04 11:16:19;;;;;;;5.38;3.58;;;;;;;26.15;34.59;100444.16;3622481;22;20038;-71
2021/07/04 11:19:07;;;;;;;5.13;3.40;;;;;;;26.10;34.78;100438.44;3564323;39;20114;-70
2021/07/04 11:21:50;;;;;;;4.70;3.30;;;;;;;26.07;34.96;100430.50;3568181;39;20316;-71
2021/07/04 11:24:20;;;;;;;5.57;3.47;;;;;;;26.03;34.88;100432.94;3564101;40;20049;-70
2021/07/04 11:27:22;;;;;;;4.25;3.38;;;;;;;26.00;34.86;100430.63;3562275;39;20079;-71
2021/07/04 11:30:31;;;;;;;4.78;3.85;;;;;;;25.97;34.88;100422.69;3570634;39;20391;-70
2021/07/04 11:33:35;;;;;;;5.78;4.03;;;;;;;25.91;35.12;100415.28;3565687;39;20129;-70
2021/07/04 11:36:07;;;;;;;4.90;3.72;;;;;;;25.95;35.17;100419.28;3562354;40;20074;-70
2021/07/04 11:38:39;;;;;;;6.70;3.78;;;;;;;25.94;34.86;100420.38;3563874;40;20053;-72
2021/07/04 11:41:08;;;;;;;5.25;4.05;;;;;;;25.93;34.90;100424.31;3563496;39;20102;-71
2021/07/04 11:43:39;;;;;;;4.68;3.92;;;;;;;25.96;34.96;100409.78;3573316;39;20047;-71
2021/07/04 11:46:09;;;;;;;5.85;4.57;;;;;;;25.94;34.71;100409.16;3573113;39;20057;-72
2021/07/04 11:48:49;;;;;;;5.78;4.18;;;;;;;25.93;34.78;100416.75;3559811;39;20452;-71